PWSweather.com
Personal Weather Stations
Station Observations
SELKIRK1
Ontario, Selkirk, ON N0A 1P0

OntarioSelkirk, ON N0A 1P0

Lat: 42.8083652, Lon: -79.94971040000001

Elevation: 583

Station Type: Acurite 5 in 1

http://gavinsurf.com

High Low Average
Temperature 74.0°F23.3°C 65.5°F18.6°C 70.2°F21.2°C
Dew Point 69.6°F20.9°C 63.3°F17.4°C 68.1°F20.1°C
Winds 13.8 mph 22.2 kmh 1.2 mph 1.9 kmh 7.0 mph SW11.3 kmh SW
Wind Gusts 16.1 mph25.9 kmh 1.2 mph1.9 kmh 8.0 mph12.9 kmh
Humidity 99% 86% 93%
Pressure 31.83 in1077.9 mb 31.83 in1077.9 mb -
Precipitation 0.01 in0.3 mm - -
Hour Temp Dew Point Humidity Winds Wind Gusts Pressure Precip Precip Rate Daily Precip Total
07:30 AM 65.7°F18.7°C 63.3°F17.4°C 92% 3.5 mph S5.6 kmh S 4.6 mph7.4 kmh 31.83 in1077.9 mb - 0.00 in0.0 mm 0.01 in0.3 mm
07:35 AM 65.7°F18.7°C 65.4°F18.6°C 99% 3.5 mph SW5.6 kmh SW 4.6 mph7.4 kmh 31.83 in1077.9 mb - 0.00 in0.0 mm 0.01 in0.3 mm
07:40 AM 65.5°F18.6°C 65.2°F18.4°C 99% 3.5 mph S5.6 kmh S 3.5 mph5.6 kmh 31.83 in1077.9 mb - 0.00 in0.0 mm 0.01 in0.3 mm
07:45 AM 65.5°F18.6°C 65.2°F18.4°C 99% 3.5 mph SW5.6 kmh SW 5.8 mph9.3 kmh 31.83 in1077.9 mb - 0.00 in0.0 mm 0.01 in0.3 mm
07:50 AM 65.7°F18.7°C 65.4°F18.6°C 99% 1.2 mph S1.9 kmh S 2.3 mph3.7 kmh 31.83 in1077.9 mb - 0.00 in0.0 mm 0.01 in0.3 mm
07:55 AM 66.0°F18.9°C 65.7°F18.7°C 99% 1.2 mph N1.9 kmh N 2.3 mph3.7 kmh 31.83 in1077.9 mb - 0.00 in0.0 mm 0.01 in0.3 mm
08:00 AM 66.3°F19.1°C 66.0°F18.9°C 99% 1.2 mph WSW1.9 kmh WSW 1.2 mph1.9 kmh 31.83 in1077.9 mb - 0.00 in0.0 mm 0.01 in0.3 mm
08:10 AM 66.8°F19.3°C 66.5°F19.2°C 99% 2.3 mph NNE3.7 kmh NNE 2.3 mph3.7 kmh 31.83 in1077.9 mb - 0.00 in0.0 mm 0.01 in0.3 mm
08:15 AM 66.9°F19.4°C 66.6°F19.2°C 99% 2.3 mph NW3.7 kmh NW 2.3 mph3.7 kmh 31.83 in1077.9 mb - 0.00 in0.0 mm 0.01 in0.3 mm
08:20 AM 66.9°F19.4°C 66.6°F19.2°C 99% 1.2 mph NW1.9 kmh NW 2.3 mph3.7 kmh 31.83 in1077.9 mb - 0.00 in0.0 mm 0.01 in0.3 mm
08:25 AM 67.1°F19.5°C 66.8°F19.3°C 99% 1.2 mph NE1.9 kmh NE 2.3 mph3.7 kmh 31.83 in1077.9 mb - 0.00 in0.0 mm 0.01 in0.3 mm
08:30 AM 67.5°F19.7°C 67.2°F19.6°C 99% 2.3 mph WSW3.7 kmh WSW 3.5 mph5.6 kmh 31.83 in1077.9 mb - 0.00 in0.0 mm 0.01 in0.3 mm
08:40 AM 67.5°F19.7°C 67.2°F19.6°C 99% 3.5 mph S5.6 kmh S 3.5 mph5.6 kmh 31.83 in1077.9 mb - 0.00 in0.0 mm 0.01 in0.3 mm
08:45 AM 67.5°F19.7°C 67.2°F19.6°C 99% 3.5 mph S5.6 kmh S 3.5 mph5.6 kmh 31.83 in1077.9 mb - 0.00 in0.0 mm 0.01 in0.3 mm
08:50 AM 67.5°F19.7°C 67.2°F19.6°C 99% 3.5 mph S5.6 kmh S 3.5 mph5.6 kmh 31.83 in1077.9 mb - 0.00 in0.0 mm 0.01 in0.3 mm
08:55 AM 67.5°F19.7°C 67.2°F19.6°C 99% 3.5 mph S5.6 kmh S 3.5 mph5.6 kmh 31.83 in1077.9 mb - 0.00 in0.0 mm 0.01 in0.3 mm
09:00 AM 67.5°F19.7°C 67.2°F19.6°C 99% 3.5 mph S5.6 kmh S 3.5 mph5.6 kmh 31.83 in1077.9 mb - 0.00 in0.0 mm 0.01 in0.3 mm
09:10 AM 67.5°F19.7°C 67.2°F19.6°C 99% 3.5 mph S5.6 kmh S 3.5 mph5.6 kmh 31.83 in1077.9 mb - 0.00 in0.0 mm 0.01 in0.3 mm
09:15 AM 67.5°F19.7°C 67.2°F19.6°C 99% 3.5 mph S5.6 kmh S 3.5 mph5.6 kmh 31.83 in1077.9 mb - 0.00 in0.0 mm 0.01 in0.3 mm
09:20 AM 67.5°F19.7°C 67.2°F19.6°C 99% 3.5 mph S5.6 kmh S 3.5 mph5.6 kmh 31.83 in1077.9 mb - 0.00 in0.0 mm 0.01 in0.3 mm
09:25 AM 67.5°F19.7°C 67.2°F19.6°C 99% 3.5 mph S5.6 kmh S 3.5 mph5.6 kmh 31.83 in1077.9 mb - 0.00 in0.0 mm 0.01 in0.3 mm
09:30 AM 67.5°F19.7°C 67.2°F19.6°C 99% 3.5 mph S5.6 kmh S 3.5 mph5.6 kmh 31.83 in1077.9 mb - 0.00 in0.0 mm 0.01 in0.3 mm
09:35 AM 67.5°F19.7°C 67.2°F19.6°C 99% 3.5 mph S5.6 kmh S 3.5 mph5.6 kmh 31.83 in1077.9 mb - 0.00 in0.0 mm 0.01 in0.3 mm
09:40 AM 67.5°F19.7°C 67.2°F19.6°C 99% 3.5 mph S5.6 kmh S 3.5 mph5.6 kmh 31.83 in1077.9 mb - 0.00 in0.0 mm 0.01 in0.3 mm
09:45 AM 67.5°F19.7°C 67.2°F19.6°C 99% 3.5 mph S5.6 kmh S 3.5 mph5.6 kmh 31.83 in1077.9 mb - 0.00 in0.0 mm 0.01 in0.3 mm
09:50 AM 67.5°F19.7°C 67.2°F19.6°C 99% 3.5 mph S5.6 kmh S 3.5 mph5.6 kmh 31.83 in1077.9 mb - 0.00 in0.0 mm 0.01 in0.3 mm
10:00 AM 67.5°F19.7°C 67.2°F19.6°C 99% 3.5 mph S5.6 kmh S 3.5 mph5.6 kmh 31.83 in1077.9 mb - 0.00 in0.0 mm 0.01 in0.3 mm
10:10 AM 72.0°F22.2°C 68.9°F20.5°C 90% 3.5 mph SW5.6 kmh SW 4.6 mph7.4 kmh 31.83 in1077.9 mb - 0.00 in0.0 mm 0.01 in0.3 mm
10:15 AM 71.9°F22.2°C 68.8°F20.4°C 90% 3.5 mph S5.6 kmh S 5.8 mph9.3 kmh 31.83 in1077.9 mb - 0.00 in0.0 mm 0.01 in0.3 mm
10:20 AM 72.7°F22.6°C 69.6°F20.9°C 90% 3.5 mph SSW5.6 kmh SSW 3.5 mph5.6 kmh 31.83 in1077.9 mb - 0.00 in0.0 mm 0.01 in0.3 mm
10:25 AM 73.3°F22.9°C 69.6°F20.9°C 88% 3.5 mph SW5.6 kmh SW 5.8 mph9.3 kmh 31.83 in1077.9 mb - 0.00 in0.0 mm 0.01 in0.3 mm
10:30 AM 74.0°F23.3°C 69.5°F20.8°C 86% 3.5 mph WNW5.6 kmh WNW 5.8 mph9.3 kmh 31.83 in1077.9 mb - 0.00 in0.0 mm 0.01 in0.3 mm
10:35 AM 73.0°F22.8°C 68.9°F20.5°C 87% 6.9 mph SSW11.1 kmh SSW 6.9 mph11.1 kmh 31.83 in1077.9 mb - 0.00 in0.0 mm 0.01 in0.3 mm
10:40 AM 71.4°F21.9°C 68.3°F20.2°C 90% 6.9 mph SW11.1 kmh SW 8.1 mph13.0 kmh 31.83 in1077.9 mb - 0.00 in0.0 mm 0.01 in0.3 mm
10:45 AM 72.0°F22.2°C 68.9°F20.5°C 90% 4.6 mph S7.4 kmh S 5.8 mph9.3 kmh 31.83 in1077.9 mb - 0.00 in0.0 mm 0.01 in0.3 mm
10:50 AM 72.4°F22.4°C 69.0°F20.6°C 89% 4.6 mph SW7.4 kmh SW 4.6 mph7.4 kmh 31.83 in1077.9 mb - 0.00 in0.0 mm 0.01 in0.3 mm
10:55 AM 73.0°F22.8°C 69.2°F20.7°C 88% 4.6 mph SW7.4 kmh SW 6.9 mph11.1 kmh 31.83 in1077.9 mb - 0.00 in0.0 mm 0.01 in0.3 mm
11:00 AM 73.1°F22.8°C 69.3°F20.7°C 88% 3.5 mph SSW5.6 kmh SSW 4.6 mph7.4 kmh 31.83 in1077.9 mb - 0.00 in0.0 mm 0.01 in0.3 mm
11:10 AM 73.0°F22.8°C 68.9°F20.5°C 87% 5.8 mph SW9.3 kmh SW 6.9 mph11.1 kmh 31.83 in1077.9 mb - 0.00 in0.0 mm 0.01 in0.3 mm
11:15 AM 73.6°F23.1°C 69.1°F20.6°C 86% 5.8 mph S9.3 kmh S 6.9 mph11.1 kmh 31.83 in1077.9 mb - 0.00 in0.0 mm 0.01 in0.3 mm
11:20 AM 73.6°F23.1°C 69.1°F20.6°C 86% 4.6 mph SSW7.4 kmh SSW 5.8 mph9.3 kmh 31.83 in1077.9 mb - 0.00 in0.0 mm 0.01 in0.3 mm
11:25 AM 74.0°F23.3°C 69.5°F20.8°C 86% 6.9 mph SW11.1 kmh SW 9.2 mph14.8 kmh 31.83 in1077.9 mb - 0.00 in0.0 mm 0.01 in0.3 mm
11:30 AM 73.2°F22.9°C 68.7°F20.4°C 86% 5.8 mph SSW9.3 kmh SSW 6.9 mph11.1 kmh 31.83 in1077.9 mb - 0.00 in0.0 mm 0.01 in0.3 mm
11:35 AM 73.1°F22.8°C 68.6°F20.3°C 86% 9.2 mph SW14.8 kmh SW 10.4 mph16.7 kmh 31.83 in1077.9 mb - 0.00 in0.0 mm 0.01 in0.3 mm
11:40 AM 73.1°F22.8°C 69.0°F20.6°C 87% 6.9 mph SW11.1 kmh SW 8.1 mph13.0 kmh 31.83 in1077.9 mb - 0.00 in0.0 mm 0.01 in0.3 mm
11:45 AM 72.7°F22.6°C 68.6°F20.3°C 87% 8.1 mph SSW13.0 kmh SSW 10.4 mph16.7 kmh 31.83 in1077.9 mb - 0.00 in0.0 mm 0.01 in0.3 mm
11:50 AM 73.2°F22.9°C 69.1°F20.6°C 87% 6.9 mph SW11.1 kmh SW 9.2 mph14.8 kmh 31.83 in1077.9 mb - 0.00 in0.0 mm 0.01 in0.3 mm
11:55 AM 72.7°F22.6°C 68.9°F20.5°C 88% 6.9 mph SW11.1 kmh SW 8.1 mph13.0 kmh 31.83 in1077.9 mb - 0.00 in0.0 mm 0.01 in0.3 mm
12:00 PM 72.4°F22.4°C 68.6°F20.3°C 88% 10.4 mph SSW16.7 kmh SSW 10.4 mph16.7 kmh 31.83 in1077.9 mb - 0.00 in0.0 mm 0.01 in0.3 mm
12:10 PM 72.5°F22.5°C 69.1°F20.6°C 89% 8.1 mph SSW13.0 kmh SSW 11.5 mph18.5 kmh 31.83 in1077.9 mb - 0.00 in0.0 mm 0.01 in0.3 mm
12:15 PM 71.8°F22.1°C 68.4°F20.2°C 89% 9.2 mph SW14.8 kmh SW 10.4 mph16.7 kmh 31.83 in1077.9 mb - 0.00 in0.0 mm 0.01 in0.3 mm
12:20 PM 71.4°F21.9°C 68.4°F20.2°C 90% 11.5 mph SSW18.5 kmh SSW 12.7 mph20.4 kmh 31.83 in1077.9 mb - 0.00 in0.0 mm 0.01 in0.3 mm
12:25 PM 71.1°F21.7°C 68.3°F20.2°C 91% 10.4 mph SSW16.7 kmh SSW 10.4 mph16.7 kmh 31.83 in1077.9 mb - 0.00 in0.0 mm 0.01 in0.3 mm
12:30 PM 71.3°F21.8°C 68.5°F20.3°C 91% 10.4 mph SSW16.7 kmh SSW 11.5 mph18.5 kmh 31.83 in1077.9 mb - 0.00 in0.0 mm 0.01 in0.3 mm
12:35 PM 71.6°F22.0°C 68.8°F20.4°C 91% 9.2 mph SW14.8 kmh SW 9.2 mph14.8 kmh 31.83 in1077.9 mb - 0.00 in0.0 mm 0.01 in0.3 mm
12:40 PM 71.8°F22.1°C 69.0°F20.6°C 91% 8.1 mph SW13.0 kmh SW 9.2 mph14.8 kmh 31.83 in1077.9 mb - 0.00 in0.0 mm 0.01 in0.3 mm
12:45 PM 72.7°F22.6°C 69.2°F20.7°C 89% 9.2 mph SSW14.8 kmh SSW 10.4 mph16.7 kmh 31.83 in1077.9 mb - 0.00 in0.0 mm 0.01 in0.3 mm
12:50 PM 71.7°F22.1°C 68.3°F20.2°C 89% 9.2 mph SSW14.8 kmh SSW 10.4 mph16.7 kmh 31.83 in1077.9 mb - 0.00 in0.0 mm 0.01 in0.3 mm
12:55 PM 71.3°F21.8°C 68.5°F20.3°C 91% 11.5 mph WSW18.5 kmh WSW 12.7 mph20.4 kmh 31.83 in1077.9 mb - 0.00 in0.0 mm 0.01 in0.3 mm
01:00 PM 70.7°F21.5°C 68.2°F20.1°C 92% 10.4 mph SW16.7 kmh SW 11.5 mph18.5 kmh 31.83 in1077.9 mb - 0.00 in0.0 mm 0.01 in0.3 mm
01:10 PM 70.7°F21.5°C 68.2°F20.1°C 92% 11.5 mph SSW18.5 kmh SSW 11.5 mph18.5 kmh 31.83 in1077.9 mb - 0.00 in0.0 mm 0.01 in0.3 mm
01:15 PM 70.4°F21.3°C 68.6°F20.3°C 94% 13.8 mph SW22.2 kmh SW 13.8 mph22.2 kmh 31.83 in1077.9 mb - 0.00 in0.0 mm 0.01 in0.3 mm
01:20 PM 70.4°F21.3°C 68.6°F20.3°C 94% 11.5 mph SW18.5 kmh SW 12.7 mph20.4 kmh 31.83 in1077.9 mb - 0.00 in0.0 mm 0.01 in0.3 mm
01:25 PM 70.4°F21.3°C 68.6°F20.3°C 94% 11.5 mph WSW18.5 kmh WSW 11.5 mph18.5 kmh 31.83 in1077.9 mb - 0.00 in0.0 mm 0.01 in0.3 mm
01:30 PM 69.6°F20.9°C 68.4°F20.2°C 96% 12.7 mph SW20.4 kmh SW 13.8 mph22.2 kmh 31.83 in1077.9 mb - 0.00 in0.0 mm 0.01 in0.3 mm
01:35 PM 69.6°F20.9°C 68.4°F20.2°C 96% 12.7 mph SW20.4 kmh SW 15.0 mph24.1 kmh 31.83 in1077.9 mb - 0.00 in0.0 mm 0.01 in0.3 mm
01:40 PM 69.7°F20.9°C 68.5°F20.3°C 96% 12.7 mph SW20.4 kmh SW 15.0 mph24.1 kmh 31.83 in1077.9 mb - 0.00 in0.0 mm 0.01 in0.3 mm
01:45 PM 70.0°F21.1°C 68.8°F20.4°C 96% 12.7 mph WSW20.4 kmh WSW 13.8 mph22.2 kmh 31.83 in1077.9 mb - 0.00 in0.0 mm 0.01 in0.3 mm
01:50 PM 70.5°F21.4°C 68.7°F20.4°C 94% 12.7 mph SW20.4 kmh SW 13.8 mph22.2 kmh 31.83 in1077.9 mb - 0.00 in0.0 mm 0.01 in0.3 mm
01:55 PM 70.7°F21.5°C 68.6°F20.3°C 93% 12.7 mph WSW20.4 kmh WSW 13.8 mph22.2 kmh 31.83 in1077.9 mb - 0.00 in0.0 mm 0.01 in0.3 mm
02:00 PM 70.7°F21.5°C 68.6°F20.3°C 93% 13.8 mph SSW22.2 kmh SSW 15.0 mph24.1 kmh 31.83 in1077.9 mb - 0.00 in0.0 mm 0.01 in0.3 mm
02:10 PM 70.7°F21.5°C 68.6°F20.3°C 93% 11.5 mph SSW18.5 kmh SSW 11.5 mph18.5 kmh 31.83 in1077.9 mb - 0.00 in0.0 mm 0.01 in0.3 mm
02:15 PM 70.9°F21.6°C 68.7°F20.4°C 93% 12.7 mph SW20.4 kmh SW 12.7 mph20.4 kmh 31.83 in1077.9 mb - 0.00 in0.0 mm 0.01 in0.3 mm
02:20 PM 70.9°F21.6°C 68.8°F20.4°C 93% 13.8 mph SSW22.2 kmh SSW 16.1 mph25.9 kmh 31.83 in1077.9 mb - 0.00 in0.0 mm 0.01 in0.3 mm
02:25 PM 71.2°F21.8°C 69.1°F20.6°C 93% 13.8 mph SW22.2 kmh SW 13.8 mph22.2 kmh 31.83 in1077.9 mb - 0.00 in0.0 mm 0.01 in0.3 mm
02:30 PM 71.3°F21.8°C 68.8°F20.4°C 92% 11.5 mph SSW18.5 kmh SSW 12.7 mph20.4 kmh 31.83 in1077.9 mb - 0.00 in0.0 mm 0.01 in0.3 mm
02:35 PM 71.4°F21.9°C 68.9°F20.5°C 92% 11.5 mph SW18.5 kmh SW 11.5 mph18.5 kmh 31.83 in1077.9 mb - 0.00 in0.0 mm 0.01 in0.3 mm
02:40 PM 71.4°F21.9°C 68.9°F20.5°C 92% 13.8 mph SW22.2 kmh SW 13.8 mph22.2 kmh 31.83 in1077.9 mb - 0.00 in0.0 mm 0.01 in0.3 mm
02:45 PM 71.4°F21.9°C 68.9°F20.5°C 92% 13.8 mph SW22.2 kmh SW 13.8 mph22.2 kmh 31.83 in1077.9 mb - 0.00 in0.0 mm 0.01 in0.3 mm
02:50 PM 71.2°F21.8°C 68.7°F20.4°C 92% 12.7 mph WSW20.4 kmh WSW 15.0 mph24.1 kmh 31.83 in1077.9 mb - 0.00 in0.0 mm 0.01 in0.3 mm
02:55 PM 70.9°F21.6°C 68.4°F20.2°C 92% 10.4 mph SSW16.7 kmh SSW 10.4 mph16.7 kmh 31.83 in1077.9 mb - 0.00 in0.0 mm 0.01 in0.3 mm
03:00 PM 71.3°F21.8°C 68.8°F20.4°C 92% 6.9 mph SW11.1 kmh SW 8.1 mph13.0 kmh 31.83 in1077.9 mb - 0.00 in0.0 mm 0.01 in0.3 mm
03:10 PM 71.3°F21.8°C 68.2°F20.1°C 90% 10.4 mph SW16.7 kmh SW 13.8 mph22.2 kmh 31.83 in1077.9 mb - 0.00 in0.0 mm 0.01 in0.3 mm
03:25 PM 71.1°F21.7°C 68.0°F20.0°C 90% 12.7 mph SW20.4 kmh SW 12.7 mph20.4 kmh 31.83 in1077.9 mb - 0.00 in0.0 mm 0.01 in0.3 mm
03:30 PM 71.6°F22.0°C 68.8°F20.4°C 91% 8.1 mph SW13.0 kmh SW 9.2 mph14.8 kmh 31.83 in1077.9 mb - 0.00 in0.0 mm 0.01 in0.3 mm
03:35 PM 72.4°F22.4°C 69.3°F20.7°C 90% 4.6 mph WSW7.4 kmh WSW 4.6 mph7.4 kmh 31.83 in1077.9 mb - 0.00 in0.0 mm 0.01 in0.3 mm